Startpagina
METAR-TAF:

METAR-TAF

Vliegvelden :

Luchthaven Port Moresby

Port Moresby, Papoea-Nieuw-Guinea

breedte: 09-26S, lengte: 147-13E, hoogte: 38 m

Actueel weer

Dit bericht is 57 minuten geleden gemaakt, om 12:00 UTC
Wind 5 kt uit het zuidoosten
Temperatuur 27°C
Vochtigheid 100%
Druk 1010 hPa
Zicht 10 km of meer
Weinig wolken op 2000 ft

METAR: AYPY 211200Z 14005KT 9999 FEW020 27/27 Q1010

Tijdstip: 22:57 (12:57 UTC)

Verwachting

Dit bericht is 9 uur en het 52 minuten geleden gemaakt, om 03:05 UTC
Verwachting geldig van 21 om 06 UTC tot 22 om 06 UTC
Wind 8 kt uit het zuiden
Zicht 10 km of meer
Weinig wolken op 2000 ft
Verspreide wolken op 4000 ft
Van 21 om 1000 UTC
Wind 6 kt uit het zuiden
Zicht 10 km of meer
Gebroken wolken op 3500 ft

TAF: AYPY 210305Z 2106/2206 17008KT 9999 FEW020 SCT040 FM211000 17006KT 9999 BKN035

Waarnemingen en weersverwachtingen van meer dan 4000 vliegvelden (METAR en TAF).

De beschikbare stations zijn de gele en rode punten op de kaart.

Ga met uw muis naar het station om de naam te zien.

Klik dan om waarnemingen en weersverwachtingen te zien.

kaart wijzigen: klik op de groene knoppen met een zwart kruis om in te zoomen, op de groene knop met een streepje om uit te zoomen of op de groene pijlen voor aangrenzende kaarten.


METAR-TAF: